createdAt,value
2023-02-27T00:00:33.718Z,1.40
2023-02-27T00:03:02.010Z,1.25
2023-02-27T00:05:30.046Z,1.14
2023-02-27T00:07:57.879Z,0.99
2023-02-27T00:10:30.868Z,0.98
2023-02-27T00:30:45.729Z,1.46
2023-02-27T00:33:14.476Z,1.46
2023-02-27T00:35:42.360Z,0.97
2023-02-27T00:38:11.387Z,0.89
2023-02-27T00:40:40.090Z,0.83
2023-02-27T00:43:08.310Z,0.72
2023-02-27T00:45:36.133Z,0.74
2023-02-27T00:48:05.474Z,0.82
2023-02-27T01:05:46.777Z,0.92
2023-02-27T01:08:15.295Z,0.92
2023-02-27T01:10:43.275Z,0.46
2023-02-27T01:13:11.409Z,0.42
2023-02-27T01:15:39.622Z,0.25
2023-02-27T01:18:07.460Z,0.31
2023-02-27T01:20:35.353Z,0.40
2023-02-27T01:23:03.990Z,0.07
2023-02-27T01:40:45.309Z,1.09
2023-02-27T01:43:18.972Z,1.09
2023-02-27T01:45:49.010Z,0.43
2023-02-27T01:48:23.385Z,0.52
2023-02-27T01:51:03.752Z,0.52
2023-02-27T01:53:36.014Z,0.53
2023-02-27T01:56:18.828Z,0.50
2023-02-27T01:58:50.323Z,0.48
2023-02-27T02:17:23.482Z,1.18
2023-02-27T02:19:57.868Z,1.18
2023-02-27T02:22:31.718Z,0.46
2023-02-27T02:25:14.679Z,0.41
2023-02-27T02:28:00.266Z,0.48
2023-02-27T02:30:33.703Z,0.50
2023-02-27T02:51:05.023Z,1.10
2023-02-27T02:53:47.890Z,1.10
2023-02-27T02:56:25.861Z,0.51
2023-02-27T02:59:08.074Z,0.45
2023-02-27T03:02:00.300Z,0.21
2023-02-27T03:04:38.948Z,0.40
2023-02-27T03:07:19.732Z,0.44
2023-02-27T03:29:03.971Z,1.07
2023-02-27T03:31:50.061Z,1.07
2023-02-27T03:34:24.461Z,0.42
2023-02-27T03:36:52.458Z,0.41
2023-02-27T03:39:24.059Z,0.42
2023-02-27T04:02:32.539Z,0.80
2023-02-27T04:05:01.571Z,0.80
2023-02-27T04:08:08.781Z,-0.05
2023-02-27T04:10:45.845Z,-0.09
2023-02-27T04:13:29.354Z,0.18
2023-02-27T04:16:09.488Z,-0.08
2023-02-27T04:19:05.599Z,0.10
2023-02-27T04:21:39.783Z,0.00
2023-02-27T04:38:26.419Z,-0.22
2023-02-27T04:41:02.503Z,-0.21
2023-02-27T04:43:36.490Z,-0.41
2023-02-27T04:46:10.986Z,-0.40
2023-02-27T04:48:48.167Z,-0.27
2023-02-27T04:51:23.182Z,-0.35
2023-02-27T04:54:00.897Z,-0.32
2023-02-27T05:08:23.495Z,0.66
2023-02-27T05:11:29.064Z,0.66
2023-02-27T05:14:08.457Z,-0.21
2023-02-27T05:26:51.303Z,-0.27
2023-02-27T05:29:37.823Z,0.04
2023-02-27T05:32:33.993Z,-0.38
2023-02-27T05:35:15.979Z,-0.25
2023-02-27T05:37:54.563Z,-0.26
2023-02-27T05:40:29.642Z,-0.32
2023-02-27T05:45:56.723Z,-0.21
2023-02-27T06:16:39.220Z,0.99
2023-02-27T06:19:07.836Z,0.99
2023-02-27T06:21:35.874Z,0.20
2023-02-27T06:24:03.893Z,0.47
2023-02-27T06:26:32.074Z,0.46
2023-02-27T06:29:00.123Z,0.46
2023-02-27T06:31:28.050Z,0.41
2023-02-27T06:33:56.358Z,0.32
2023-02-27T06:36:24.471Z,0.64
2023-02-27T06:38:52.722Z,0.75
2023-02-27T06:41:21.342Z,0.54
2023-02-27T06:43:49.431Z,0.52
2023-02-27T06:46:17.431Z,0.47
2023-02-27T06:48:45.921Z,0.48
2023-02-27T06:51:14.004Z,0.55
2023-02-27T06:53:44.715Z,0.62
2023-02-27T06:56:12.844Z,0.60
2023-02-27T07:01:38.069Z,0.80
2023-02-27T07:04:09.439Z,0.84
2023-02-27T07:09:34.082Z,0.69
2023-02-27T07:22:13.655Z,1.68
2023-02-27T07:24:42.291Z,1.68
2023-02-27T07:27:10.192Z,0.55
2023-02-27T07:29:38.244Z,0.56
2023-02-27T07:32:06.673Z,0.88
2023-02-27T07:34:35.042Z,1.11
2023-02-27T07:37:03.024Z,0.93
2023-02-27T07:39:31.253Z,1.11
2023-02-27T07:42:00.229Z,0.50
2023-02-27T07:44:28.549Z,1.31
2023-02-27T07:46:56.903Z,1.48
2023-02-27T07:49:28.385Z,1.46
2023-02-27T07:51:57.106Z,1.44
2023-02-27T07:54:25.466Z,1.41
2023-02-27T07:56:53.394Z,1.52
2023-02-27T07:59:22.541Z,0.74
2023-02-27T08:01:50.720Z,1.47
2023-02-27T08:04:18.952Z,0.53
2023-02-27T08:06:47.207Z,1.35
2023-02-27T08:09:15.708Z,1.29
2023-02-27T08:19:20.621Z,1.83
2023-02-27T08:34:23.406Z,2.21
2023-02-27T08:36:53.312Z,2.17
2023-02-27T08:39:24.337Z,2.27
2023-02-27T08:41:53.464Z,2.31
2023-02-27T08:44:22.176Z,2.39
2023-02-27T08:46:51.935Z,2.56
2023-02-27T08:49:31.149Z,2.55
2023-02-27T08:51:59.076Z,2.33
2023-02-27T08:54:29.196Z,2.46
2023-02-27T08:56:57.219Z,2.47
2023-02-27T08:59:26.197Z,2.39
2023-02-27T09:04:41.244Z,2.63
2023-02-27T09:07:10.391Z,2.75
2023-02-27T09:09:40.220Z,2.62
2023-02-27T09:12:11.509Z,2.79
2023-02-27T09:14:43.138Z,2.71
2023-02-27T09:17:13.677Z,2.78
2023-02-27T09:19:45.567Z,2.86
2023-02-27T09:22:14.324Z,2.82
2023-02-27T09:24:46.762Z,2.61
2023-02-27T09:27:16.570Z,2.87
2023-02-27T09:29:47.659Z,2.75
2023-02-27T09:32:17.447Z,2.87
2023-02-27T09:34:47.650Z,2.79
2023-02-27T09:37:16.665Z,3.07
2023-02-27T09:39:48.030Z,3.25
2023-02-27T09:42:26.749Z,3.28
2023-02-27T09:45:05.776Z,3.31
2023-02-27T09:47:40.145Z,3.60
2023-02-27T10:08:40.095Z,4.65
2023-02-27T10:11:15.446Z,4.64
2023-02-27T10:13:50.938Z,4.69
2023-02-27T10:16:21.690Z,4.41
2023-02-27T10:19:01.666Z,4.61
2023-02-27T10:21:38.349Z,4.59
2023-02-27T10:24:12.898Z,4.34
2023-02-27T10:26:45.597Z,4.05
2023-02-27T10:29:42.027Z,4.30
2023-02-27T10:32:33.135Z,4.30
2023-02-27T10:40:58.125Z,4.19
2023-02-27T10:43:29.642Z,4.09
2023-02-27T11:07:50.977Z,5.32
2023-02-27T11:10:26.337Z,5.32
2023-02-27T11:13:01.429Z,4.61
2023-02-27T11:15:35.332Z,4.90
2023-02-27T11:18:21.784Z,4.87
2023-02-27T11:20:50.933Z,4.55
2023-02-27T11:23:25.040Z,4.50
2023-02-27T11:26:10.754Z,4.65
2023-02-27T11:28:40.111Z,4.36
2023-02-27T11:31:19.744Z,4.62
2023-02-27T11:36:57.770Z,4.58
2023-02-27T11:43:37.722Z,4.91
2023-02-27T11:46:45.426Z,4.82
2023-02-27T11:52:58.512Z,4.69
2023-02-27T12:04:06.689Z,5.03
2023-02-27T12:06:53.649Z,4.42
2023-02-27T12:09:43.995Z,4.85
2023-02-27T12:12:25.607Z,4.75
2023-02-27T12:15:06.510Z,4.75
2023-02-27T12:18:09.913Z,4.73
2023-02-27T12:21:03.751Z,4.70
2023-02-27T12:23:53.113Z,4.93
2023-02-27T12:26:48.213Z,4.90
2023-02-27T12:32:19.391Z,5.03
2023-02-27T12:37:34.664Z,5.22
2023-02-27T12:40:15.120Z,5.38
2023-02-27T12:43:11.804Z,5.18
2023-02-27T12:46:15.683Z,5.25
2023-02-27T12:48:57.640Z,5.29
2023-02-27T12:52:04.074Z,5.41
2023-02-27T12:55:02.334Z,5.40
2023-02-27T12:57:55.303Z,5.37
2023-02-27T13:00:28.133Z,5.41
2023-02-27T13:29:15.857Z,5.45
2023-02-27T13:32:29.995Z,5.45
2023-02-27T13:35:47.725Z,4.89
2023-02-27T13:38:40.549Z,4.93
2023-02-27T13:41:20.361Z,5.16
2023-02-27T13:43:52.756Z,5.34
2023-02-27T13:46:25.256Z,5.39
2023-02-27T13:49:10.722Z,5.31
2023-02-27T13:51:46.642Z,5.14
2023-02-27T14:27:29.340Z,5.14
2023-02-27T14:30:03.945Z,5.14
2023-02-27T14:32:38.931Z,4.44
2023-02-27T14:35:08.917Z,4.66
2023-02-27T14:37:37.366Z,4.71
2023-02-27T14:40:06.508Z,4.71
2023-02-27T14:42:52.988Z,4.77
2023-02-27T14:45:24.563Z,4.80
2023-02-27T14:47:54.109Z,4.64
2023-02-27T14:53:27.392Z,4.63
2023-02-27T14:55:58.445Z,4.61
2023-02-27T14:58:27.352Z,4.58
2023-02-27T15:00:55.790Z,4.59
2023-02-27T15:03:25.200Z,4.61
2023-02-27T15:05:59.793Z,4.56
2023-02-27T15:08:32.454Z,4.49
2023-02-27T15:11:02.689Z,4.52
2023-02-27T15:13:39.791Z,4.49
2023-02-27T15:26:40.786Z,4.44
2023-02-27T15:29:22.505Z,4.11
2023-02-27T15:31:52.866Z,4.20
2023-02-27T15:34:21.262Z,4.27
2023-02-27T15:36:53.407Z,4.30
2023-02-27T15:39:24.967Z,4.33
2023-02-27T15:42:04.806Z,4.14
2023-02-27T15:44:53.617Z,4.06
2023-02-27T15:47:30.004Z,4.08
2023-02-27T16:06:23.596Z,4.73
2023-02-27T16:09:02.947Z,4.73
2023-02-27T16:11:33.532Z,4.06
2023-02-27T16:14:02.842Z,4.00
2023-02-27T16:16:36.082Z,3.99
2023-02-27T16:19:30.227Z,3.99
2023-02-27T16:22:14.114Z,3.97
2023-02-27T16:24:43.833Z,3.95
2023-02-27T16:45:28.895Z,4.39
2023-02-27T16:47:59.688Z,4.39
2023-02-27T16:50:34.920Z,3.71
2023-02-27T16:53:04.025Z,3.56
2023-02-27T16:55:35.270Z,3.52
2023-02-27T16:58:03.608Z,3.53
2023-02-27T17:00:34.195Z,3.43
2023-02-27T17:26:00.789Z,3.95
2023-02-27T17:28:31.245Z,3.95
2023-02-27T17:30:59.763Z,3.27
2023-02-27T17:33:27.896Z,3.00
2023-02-27T17:36:07.905Z,2.99
2023-02-27T17:38:37.364Z,2.69
2023-02-27T17:41:11.101Z,2.75
2023-02-27T17:43:41.865Z,2.63
2023-02-27T18:03:50.407Z,2.58
2023-02-27T18:06:19.549Z,2.58
2023-02-27T18:08:48.736Z,1.84
2023-02-27T18:11:20.586Z,1.67
2023-02-27T18:13:50.652Z,1.70
2023-02-27T18:16:19.850Z,1.59
2023-02-27T18:18:48.675Z,1.59
2023-02-27T18:21:21.493Z,1.54
2023-02-27T18:23:51.885Z,1.52
2023-02-27T18:49:52.096Z,2.16
2023-02-27T18:52:21.082Z,2.16
2023-02-27T18:54:49.136Z,1.47
2023-02-27T18:57:18.256Z,1.38
2023-02-27T18:59:55.577Z,1.39
2023-02-27T19:02:27.031Z,1.48
2023-02-27T19:04:56.091Z,1.54
2023-02-27T19:07:25.549Z,1.48
2023-02-27T19:09:54.226Z,1.57
2023-02-27T19:12:23.137Z,1.57
2023-02-27T19:17:19.734Z,1.63
2023-02-27T19:22:55.330Z,1.86
2023-02-27T19:25:24.522Z,1.79
2023-02-27T19:27:56.562Z,1.90
2023-02-27T19:30:25.538Z,1.93
2023-02-27T19:32:54.368Z,1.90
2023-02-27T19:35:22.567Z,1.94
2023-02-27T19:37:57.091Z,1.88
2023-02-27T19:58:02.379Z,1.50
2023-02-27T20:00:33.548Z,1.40
2023-02-27T20:03:05.718Z,1.49
2023-02-27T20:05:38.267Z,1.53
2023-02-27T20:08:06.843Z,1.59
2023-02-27T20:10:34.986Z,1.60
2023-02-27T20:13:03.684Z,1.48
2023-02-27T20:35:57.281Z,2.04
2023-02-27T20:38:27.762Z,2.04
2023-02-27T20:41:01.088Z,1.34
2023-02-27T20:43:29.665Z,1.32
2023-02-27T20:45:57.857Z,1.32
2023-02-27T20:48:25.818Z,1.40
2023-02-27T20:50:54.829Z,1.35
2023-02-27T20:53:36.743Z,1.31
2023-02-27T21:09:02.588Z,2.02
2023-02-27T21:11:33.397Z,2.02
2023-02-27T21:14:09.219Z,1.35
2023-02-27T21:16:39.624Z,1.48
2023-02-27T21:19:08.593Z,1.34
2023-02-27T21:21:36.665Z,1.41
2023-02-27T21:24:06.281Z,1.28
2023-02-27T21:26:48.707Z,1.33
2023-02-27T21:47:10.302Z,2.09
2023-02-27T21:49:39.462Z,2.09
2023-02-27T21:52:08.131Z,1.32
2023-02-27T21:54:36.105Z,1.46
2023-02-27T21:57:05.456Z,1.36
2023-02-27T21:59:33.373Z,1.11
2023-02-27T22:02:01.272Z,1.23
2023-02-27T22:04:30.289Z,1.22
2023-02-27T22:24:51.863Z,1.54
2023-02-27T22:27:20.548Z,1.54
2023-02-27T22:29:49.200Z,0.89
2023-02-27T22:32:20.127Z,0.93
2023-02-27T22:34:49.462Z,0.91
2023-02-27T22:37:19.503Z,0.88
2023-02-27T22:39:47.537Z,0.94
2023-02-27T23:03:06.928Z,1.30
2023-02-27T23:05:35.518Z,1.30
2023-02-27T23:08:03.475Z,-0.23
2023-02-27T23:10:31.416Z,0.78
2023-02-27T23:12:59.662Z,0.25
2023-02-27T23:15:27.720Z,0.77
2023-02-27T23:17:58.503Z,0.61
2023-02-27T23:20:27.133Z,0.66
2023-02-27T23:43:24.118Z,0.72
2023-02-27T23:45:54.407Z,0.44
2023-02-27T23:48:23.036Z,0.63
2023-02-27T23:50:51.109Z,0.61
2023-02-27T23:53:19.323Z,0.54
2023-02-27T23:55:47.587Z,0.62
2023-02-27T23:58:15.667Z,0.54
